createdAt,value
2023-06-15T00:02:23.506Z,10.00
2023-06-15T00:04:51.717Z,9.30
2023-06-15T00:07:19.025Z,9.10
2023-06-15T00:09:46.107Z,8.90
2023-06-15T00:22:50.068Z,8.70
2023-06-15T00:25:17.259Z,8.80
2023-06-15T00:27:44.720Z,8.70
2023-06-15T00:30:13.429Z,11.00
2023-06-15T00:32:40.945Z,11.50
2023-06-15T00:35:08.771Z,11.40
2023-06-15T00:37:36.081Z,10.80
2023-06-15T00:40:06.536Z,9.00
2023-06-15T00:42:33.944Z,9.90
2023-06-15T00:45:01.978Z,10.90
2023-06-15T00:47:29.224Z,11.50
2023-06-15T00:49:58.203Z,12.40
2023-06-15T00:52:26.335Z,11.30
2023-06-15T00:54:53.504Z,12.00
2023-06-15T00:57:25.029Z,11.60
2023-06-15T00:59:52.133Z,9.80
2023-06-15T01:02:19.282Z,11.30
2023-06-15T01:04:46.460Z,11.20
2023-06-15T01:07:13.636Z,9.80
2023-06-15T01:09:43.488Z,11.00
2023-06-15T01:12:13.021Z,11.80
2023-06-15T01:14:41.429Z,11.70
2023-06-15T01:17:16.398Z,10.10
2023-06-15T01:20:04.848Z,10.50
2023-06-15T01:22:58.399Z,10.20
2023-06-15T01:25:44.901Z,9.90
2023-06-15T01:28:18.263Z,9.40
2023-06-15T01:30:49.323Z,8.20
2023-06-15T01:33:16.790Z,9.10
2023-06-15T01:35:44.160Z,10.00
2023-06-15T01:38:12.759Z,11.40
2023-06-15T01:40:50.498Z,13.00
2023-06-15T01:43:26.391Z,10.50
2023-06-15T01:45:56.060Z,13.30
2023-06-15T01:48:26.222Z,13.50
2023-06-15T01:50:54.638Z,11.90
2023-06-15T01:53:22.812Z,12.10
2023-06-15T01:55:50.954Z,12.20
2023-06-15T01:58:18.090Z,11.50
2023-06-15T02:00:47.534Z,11.90
2023-06-15T02:03:15.377Z,13.30
2023-06-15T02:05:42.523Z,13.70
2023-06-15T02:08:11.626Z,13.20
2023-06-15T02:10:39.798Z,12.10
2023-06-15T02:13:09.048Z,13.40
2023-06-15T02:15:37.189Z,14.30
2023-06-15T02:18:12.446Z,13.70
2023-06-15T02:20:44.341Z,13.20
2023-06-15T02:23:12.164Z,14.00
2023-06-15T02:25:39.659Z,13.40
2023-06-15T02:28:06.956Z,12.90
2023-06-15T02:30:34.204Z,13.90
2023-06-15T02:33:01.909Z,14.20
2023-06-15T02:35:29.343Z,13.20
2023-06-15T02:37:56.625Z,13.60
2023-06-15T02:40:24.537Z,14.80
2023-06-15T02:42:51.773Z,12.50
2023-06-15T02:45:19.526Z,13.10
2023-06-15T02:47:47.811Z,12.00
2023-06-15T02:50:15.128Z,12.10
2023-06-15T02:52:45.627Z,11.20
2023-06-15T02:55:13.995Z,11.90
2023-06-15T02:57:42.092Z,11.60
2023-06-15T03:00:14.552Z,11.70
2023-06-15T03:02:43.757Z,11.90
2023-06-15T03:07:53.993Z,13.00
2023-06-15T03:10:21.232Z,12.10
2023-06-15T03:12:48.380Z,11.80
2023-06-15T03:15:17.599Z,11.20
2023-06-15T03:17:45.255Z,11.80
2023-06-15T03:20:12.474Z,11.60
2023-06-15T03:22:40.255Z,11.30
2023-06-15T03:25:11.470Z,11.70
2023-06-15T03:27:41.292Z,11.70
2023-06-15T03:30:11.235Z,11.00
2023-06-15T03:32:38.664Z,10.70
2023-06-15T03:35:08.289Z,11.20
2023-06-15T03:37:36.154Z,11.20
2023-06-15T03:40:06.349Z,12.00
2023-06-15T03:42:33.785Z,11.10
2023-06-15T03:45:01.337Z,10.80
2023-06-15T03:47:28.597Z,11.40
2023-06-15T03:49:56.033Z,12.00
2023-06-15T03:52:23.222Z,12.50
2023-06-15T03:54:50.412Z,11.00
2023-06-15T03:57:18.107Z,12.10
2023-06-15T03:59:45.147Z,11.00
2023-06-15T04:02:12.216Z,11.20
2023-06-15T04:04:40.374Z,11.10
2023-06-15T04:07:09.469Z,10.90
2023-06-15T04:09:38.448Z,11.10
2023-06-15T04:12:06.174Z,11.00
2023-06-15T04:14:33.412Z,11.20
2023-06-15T04:17:01.010Z,10.80
2023-06-15T04:19:28.272Z,10.80
2023-06-15T04:21:55.994Z,11.20
2023-06-15T04:24:24.363Z,10.70
2023-06-15T04:26:51.662Z,11.60
2023-06-15T04:29:19.708Z,10.20
2023-06-15T04:31:55.732Z,12.20
2023-06-15T04:34:23.006Z,12.10
2023-06-15T04:52:17.589Z,11.40
2023-06-15T04:54:44.583Z,9.90
2023-06-15T04:57:11.859Z,10.90
2023-06-15T04:59:39.212Z,11.30
2023-06-15T05:02:07.497Z,11.70
2023-06-15T05:04:35.031Z,12.00
2023-06-15T05:07:02.199Z,11.70
2023-06-15T05:09:29.467Z,11.70
2023-06-15T05:11:57.456Z,12.50
2023-06-15T05:14:26.769Z,11.60
2023-06-15T05:16:54.387Z,13.50
2023-06-15T05:19:21.524Z,12.20
2023-06-15T05:21:50.767Z,13.60
2023-06-15T05:24:21.536Z,11.80
2023-06-15T05:27:14.321Z,12.60
2023-06-15T05:29:41.575Z,13.10
2023-06-15T05:32:08.816Z,11.70
2023-06-15T05:34:36.040Z,13.40
2023-06-15T05:37:03.392Z,11.90
2023-06-15T05:39:32.879Z,11.80
2023-06-15T05:42:01.717Z,13.40
2023-06-15T05:44:28.887Z,12.50
2023-06-15T05:46:56.012Z,13.80
2023-06-15T05:49:23.393Z,13.60
2023-06-15T05:51:50.816Z,12.50
2023-06-15T05:54:19.362Z,12.60
2023-06-15T05:56:46.488Z,13.00
2023-06-15T05:59:27.688Z,13.80
2023-06-15T06:01:58.746Z,12.60
2023-06-15T06:04:25.722Z,13.10
2023-06-15T06:06:54.795Z,12.10
2023-06-15T06:09:21.981Z,13.60
2023-06-15T06:11:49.141Z,12.90
2023-06-15T06:14:16.504Z,13.70
2023-06-15T06:16:44.284Z,13.30
2023-06-15T06:19:11.612Z,12.80
2023-06-15T06:21:38.672Z,12.30
2023-06-15T06:24:06.307Z,12.20
2023-06-15T06:26:36.256Z,13.80
2023-06-15T06:29:04.028Z,14.00
2023-06-15T06:31:31.363Z,12.50
2023-06-15T06:33:58.379Z,13.70
2023-06-15T06:36:28.632Z,11.80
2023-06-15T06:39:02.620Z,13.10
2023-06-15T06:41:31.829Z,12.80
2023-06-15T06:43:59.077Z,11.90
2023-06-15T06:46:26.151Z,12.80
2023-06-15T06:48:53.427Z,12.30
2023-06-15T06:51:20.676Z,13.00
2023-06-15T06:53:47.907Z,12.30
2023-06-15T06:56:15.258Z,14.70
2023-06-15T06:58:42.570Z,12.60
2023-06-15T07:01:09.868Z,13.30
2023-06-15T07:03:39.575Z,12.70
2023-06-15T07:06:06.910Z,11.90
2023-06-15T07:08:35.145Z,11.40
2023-06-15T07:11:03.329Z,11.30
2023-06-15T07:13:30.339Z,11.30
2023-06-15T07:15:58.257Z,11.20
2023-06-15T07:18:26.318Z,11.60
2023-06-15T07:20:56.398Z,12.20
2023-06-15T07:23:25.498Z,11.10
2023-06-15T07:25:53.709Z,12.70
2023-06-15T07:28:21.207Z,12.30
2023-06-15T07:30:51.369Z,12.30
2023-06-15T07:33:21.478Z,11.50
2023-06-15T07:35:48.834Z,12.50
2023-06-15T07:38:16.036Z,11.70
2023-06-15T07:40:43.509Z,11.30
2023-06-15T07:43:10.986Z,12.40
2023-06-15T07:45:38.161Z,9.30
2023-06-15T07:48:06.237Z,10.30
2023-06-15T07:50:33.885Z,11.20
2023-06-15T07:53:00.959Z,11.20
2023-06-15T07:55:28.069Z,10.30
2023-06-15T07:57:55.134Z,9.10
2023-06-15T08:00:23.063Z,9.30
2023-06-15T08:02:51.668Z,7.80
2023-06-15T08:05:18.916Z,8.20
2023-06-15T08:07:45.923Z,7.70
2023-06-15T08:10:13.206Z,8.00
2023-06-15T08:12:40.472Z,9.10
2023-06-15T08:15:07.861Z,8.90
2023-06-15T08:17:37.647Z,8.00
2023-06-15T08:20:07.943Z,8.40
2023-06-15T08:22:35.416Z,8.70
2023-06-15T08:25:03.734Z,8.40
2023-06-15T08:27:30.993Z,9.00
2023-06-15T08:29:57.982Z,9.80
2023-06-15T08:32:25.042Z,9.20
2023-06-15T08:34:52.672Z,8.40
2023-06-15T08:37:19.726Z,8.70
2023-06-15T08:39:48.064Z,9.50
2023-06-15T08:42:18.134Z,10.00
2023-06-15T08:44:50.409Z,9.10
2023-06-15T08:47:17.623Z,10.00
2023-06-15T08:49:45.106Z,11.10
2023-06-15T08:52:16.576Z,11.60
2023-06-15T08:54:44.262Z,12.90
2023-06-15T08:57:11.406Z,10.90
2023-06-15T08:59:42.107Z,10.50
2023-06-15T09:02:20.027Z,10.30
2023-06-15T09:04:53.042Z,9.40
2023-06-15T09:07:24.591Z,9.90
2023-06-15T09:10:22.611Z,10.50
2023-06-15T09:12:56.121Z,16.10
2023-06-15T09:15:28.592Z,19.00
2023-06-15T09:18:01.621Z,16.70
2023-06-15T09:20:32.114Z,15.70
2023-06-15T09:23:06.865Z,12.50
2023-06-15T09:25:36.904Z,12.70
2023-06-15T09:28:10.285Z,13.60
2023-06-15T09:30:40.865Z,10.20
2023-06-15T09:33:19.607Z,8.50
2023-06-15T09:35:58.001Z,9.00
2023-06-15T09:38:40.883Z,9.70
2023-06-15T09:41:09.665Z,10.10
2023-06-15T09:43:41.653Z,10.10
2023-06-15T09:46:14.676Z,10.10
2023-06-15T09:48:44.863Z,10.70
2023-06-15T09:51:12.156Z,11.00
2023-06-15T09:53:40.506Z,11.50
2023-06-15T09:56:25.331Z,11.00
2023-06-15T09:58:59.839Z,8.20
2023-06-15T10:01:31.869Z,8.10
2023-06-15T10:04:06.177Z,9.40
2023-06-15T10:09:14.051Z,9.90
2023-06-15T10:11:46.528Z,10.60
2023-06-15T10:14:24.526Z,9.90
2023-06-15T10:17:01.771Z,9.10
2023-06-15T10:19:33.461Z,8.20
2023-06-15T10:22:02.446Z,9.40
2023-06-15T10:24:37.583Z,7.80
2023-06-15T10:27:07.196Z,8.50
2023-06-15T10:30:24.370Z,8.60
2023-06-15T10:33:30.585Z,8.70
2023-06-15T10:36:11.240Z,8.40
2023-06-15T10:38:48.081Z,7.00
2023-06-15T10:41:15.572Z,6.90
2023-06-15T10:44:00.047Z,6.60
2023-06-15T10:46:37.172Z,6.80
2023-06-15T10:49:08.088Z,6.60
2023-06-15T10:51:40.312Z,5.20
2023-06-15T10:54:23.547Z,5.40
2023-06-15T10:56:54.937Z,5.50
2023-06-15T10:59:55.646Z,4.80
2023-06-15T11:02:29.018Z,5.20
2023-06-15T11:05:09.651Z,5.10
2023-06-15T11:07:39.640Z,5.10
2023-06-15T11:10:17.530Z,5.70
2023-06-15T11:12:47.332Z,4.70
2023-06-15T11:15:16.820Z,5.00
2023-06-15T11:18:01.352Z,5.60
2023-06-15T11:20:48.008Z,4.60
2023-06-15T11:23:19.745Z,5.40
2023-06-15T11:25:49.394Z,4.10
2023-06-15T11:28:35.910Z,5.10
2023-06-15T11:31:06.792Z,3.90
2023-06-15T11:33:37.172Z,4.70
2023-06-15T11:36:07.497Z,4.10
2023-06-15T11:38:35.775Z,4.60
2023-06-15T11:41:10.078Z,3.70
2023-06-15T11:43:48.678Z,3.10
2023-06-15T11:46:21.472Z,3.70
2023-06-15T11:48:54.239Z,3.30
2023-06-15T11:51:21.539Z,3.50
2023-06-15T11:53:48.778Z,3.50
2023-06-15T11:56:17.366Z,3.80
2023-06-15T11:58:47.955Z,3.30
2023-06-15T12:01:18.473Z,3.90
2023-06-15T12:06:24.409Z,3.50
2023-06-15T12:08:55.298Z,3.30
2023-06-15T12:11:24.921Z,3.80
2023-06-15T12:14:09.669Z,3.80
2023-06-15T12:16:38.935Z,3.80
2023-06-15T12:19:09.489Z,3.40
2023-06-15T12:21:39.291Z,3.50
2023-06-15T12:24:18.612Z,3.80
2023-06-15T12:26:52.589Z,3.20
2023-06-15T12:29:22.579Z,4.00
2023-06-15T12:31:52.729Z,3.60
2023-06-15T12:34:24.550Z,3.50
2023-06-15T12:36:53.079Z,3.80
2023-06-15T12:39:25.540Z,4.20
2023-06-15T12:41:58.590Z,3.40
2023-06-15T12:44:25.862Z,3.70
2023-06-15T12:51:47.890Z,3.40
2023-06-15T12:54:16.518Z,3.60
2023-06-15T12:56:44.972Z,3.50
2023-06-15T12:59:13.437Z,3.80
2023-06-15T13:01:42.089Z,3.60
2023-06-15T13:04:14.271Z,3.60
2023-06-15T13:06:42.943Z,3.40
2023-06-15T13:09:11.688Z,3.50
2023-06-15T13:11:41.781Z,3.50
2023-06-15T13:14:10.398Z,3.20
2023-06-15T13:16:39.041Z,3.50
2023-06-15T13:19:09.490Z,3.50
2023-06-15T13:21:38.297Z,3.30
2023-06-15T13:24:06.818Z,4.00
2023-06-15T13:26:35.453Z,3.80
2023-06-15T13:29:04.248Z,3.50
2023-06-15T13:31:32.834Z,3.70
2023-06-15T13:34:01.555Z,3.00
2023-06-15T13:36:30.141Z,3.80
2023-06-15T13:38:58.863Z,3.90
2023-06-15T13:41:29.647Z,3.70
2023-06-15T13:43:58.958Z,3.70
2023-06-15T13:46:28.911Z,3.80
2023-06-15T13:48:58.190Z,3.80
2023-06-15T13:51:26.942Z,3.50
2023-06-15T13:53:55.784Z,4.10
2023-06-15T13:56:37.268Z,3.70
2023-06-15T13:59:06.108Z,3.50
2023-06-15T14:01:36.702Z,3.90
2023-06-15T14:04:08.468Z,4.70
2023-06-15T14:06:47.103Z,3.70
2023-06-15T14:09:18.735Z,4.60
2023-06-15T14:11:47.215Z,3.80
2023-06-15T14:14:15.700Z,3.90
2023-06-15T14:16:44.473Z,4.30
2023-06-15T14:19:14.122Z,4.20
2023-06-15T14:21:45.361Z,3.80
2023-06-15T14:24:14.283Z,4.40
2023-06-15T14:26:43.303Z,4.30
2023-06-15T14:29:16.353Z,4.10
2023-06-15T14:31:50.796Z,4.80
2023-06-15T14:34:22.554Z,5.10
2023-06-15T14:36:51.833Z,4.50
2023-06-15T14:39:21.909Z,4.40
2023-06-15T14:41:50.494Z,3.90
2023-06-15T14:44:19.155Z,4.20
2023-06-15T14:46:48.268Z,5.00
2023-06-15T14:49:16.791Z,4.30
2023-06-15T14:51:45.308Z,4.10
2023-06-15T14:54:13.731Z,4.50
2023-06-15T14:56:42.678Z,4.10
2023-06-15T14:59:11.497Z,4.30
2023-06-15T15:01:42.535Z,4.10
2023-06-15T15:04:11.819Z,4.70
2023-06-15T15:06:40.818Z,4.60
2023-06-15T15:09:09.411Z,4.30
2023-06-15T15:11:38.079Z,3.90
2023-06-15T15:14:25.233Z,4.20
2023-06-15T15:16:57.944Z,4.20
2023-06-15T15:19:26.417Z,3.90
2023-06-15T15:21:55.349Z,3.70
2023-06-15T15:24:24.612Z,3.20
2023-06-15T15:26:53.074Z,4.10
2023-06-15T15:29:21.568Z,3.50
2023-06-15T15:31:50.063Z,3.70
2023-06-15T15:34:19.023Z,3.50
2023-06-15T15:36:49.720Z,3.50
2023-06-15T15:39:18.394Z,3.20
2023-06-15T15:41:47.645Z,3.60
2023-06-15T15:44:19.464Z,4.10
2023-06-15T15:46:48.682Z,3.70
2023-06-15T15:49:17.580Z,3.00
2023-06-15T15:51:46.238Z,3.40
2023-06-15T15:54:14.913Z,3.20
2023-06-15T15:56:43.432Z,3.90
2023-06-15T15:59:12.181Z,3.60
2023-06-15T16:01:40.937Z,3.60
2023-06-15T16:04:09.635Z,3.50
2023-06-15T16:06:38.200Z,3.60
2023-06-15T16:09:07.096Z,3.40
2023-06-15T16:11:36.656Z,4.20
2023-06-15T16:14:06.457Z,2.90
2023-06-15T16:16:35.329Z,3.20
2023-06-15T16:19:04.062Z,3.00
2023-06-15T16:21:32.817Z,2.80
2023-06-15T16:24:01.698Z,2.60
2023-06-15T16:26:30.450Z,2.80
2023-06-15T16:28:59.672Z,2.80
2023-06-15T16:31:28.319Z,3.00
2023-06-15T16:33:57.435Z,3.30
2023-06-15T16:36:26.361Z,2.70
2023-06-15T16:39:05.516Z,2.50
2023-06-15T16:41:36.971Z,3.30
2023-06-15T16:44:06.966Z,2.40
2023-06-15T16:46:35.871Z,3.10
2023-06-15T16:49:07.582Z,3.40
2023-06-15T16:51:37.345Z,3.00
2023-06-15T16:54:06.151Z,3.90
2023-06-15T16:56:35.768Z,3.20
2023-06-15T16:59:04.283Z,3.70
2023-06-15T17:01:33.575Z,2.90
2023-06-15T17:04:02.489Z,2.90
2023-06-15T17:06:31.179Z,3.40
2023-06-15T17:08:59.917Z,3.60
2023-06-15T17:11:28.417Z,3.20
2023-06-15T17:14:02.442Z,3.20
2023-06-15T17:16:31.092Z,3.40
2023-06-15T17:18:59.557Z,3.10
2023-06-15T17:21:31.434Z,3.70
2023-06-15T17:23:59.970Z,3.30
2023-06-15T17:26:28.572Z,3.20
2023-06-15T17:28:57.142Z,2.90
2023-06-15T17:31:29.044Z,4.00
2023-06-15T17:33:57.583Z,4.20
2023-06-15T17:36:26.693Z,3.50
2023-06-15T17:38:55.599Z,3.50
2023-06-15T17:41:24.869Z,3.70
2023-06-15T17:43:54.253Z,4.10
2023-06-15T17:46:23.194Z,3.20
2023-06-15T17:48:51.867Z,3.70
2023-06-15T17:51:20.689Z,4.60
2023-06-15T17:53:49.753Z,3.70
2023-06-15T17:56:18.313Z,3.80
2023-06-15T17:58:47.284Z,3.50
2023-06-15T18:01:16.770Z,3.90
2023-06-15T18:03:45.547Z,3.20
2023-06-15T18:06:14.207Z,3.40
2023-06-15T18:08:43.393Z,3.50
2023-06-15T18:11:11.939Z,3.40
2023-06-15T18:13:40.819Z,3.40
2023-06-15T18:16:09.524Z,3.70
2023-06-15T18:18:38.162Z,3.40
2023-06-15T18:21:07.143Z,3.80
2023-06-15T18:23:35.642Z,3.70
2023-06-15T18:26:06.826Z,3.50
2023-06-15T18:28:38.278Z,3.30
2023-06-15T18:31:07.300Z,3.90
2023-06-15T18:33:36.370Z,4.10
2023-06-15T18:36:05.177Z,3.90
2023-06-15T18:38:34.658Z,3.70
2023-06-15T18:41:03.653Z,3.40
2023-06-15T18:43:32.126Z,3.60
2023-06-15T18:46:01.066Z,3.90
2023-06-15T18:48:29.496Z,3.50
2023-06-15T18:50:57.970Z,3.90
2023-06-15T18:53:28.443Z,3.60
2023-06-15T18:55:58.027Z,4.60
2023-06-15T18:58:27.024Z,4.50
2023-06-15T19:00:55.761Z,5.10
2023-06-15T19:03:25.110Z,5.20
2023-06-15T19:05:55.696Z,5.40
2023-06-15T19:08:24.419Z,4.10
2023-06-15T19:10:52.837Z,3.90
2023-06-15T19:13:24.185Z,4.00
2023-06-15T19:15:53.397Z,4.40
2023-06-15T19:18:22.232Z,4.50
2023-06-15T19:20:52.052Z,5.00
2023-06-15T19:23:21.193Z,4.40
2023-06-15T19:25:53.704Z,5.10
2023-06-15T19:28:22.613Z,6.30
2023-06-15T19:30:51.249Z,7.50
2023-06-15T19:33:25.677Z,5.40
2023-06-15T19:35:55.426Z,5.20
2023-06-15T19:38:23.981Z,5.20
2023-06-15T19:40:59.287Z,5.10
2023-06-15T19:43:28.339Z,4.30
2023-06-15T19:46:02.171Z,5.50
2023-06-15T19:48:31.040Z,5.30
2023-06-15T19:50:59.882Z,5.80
2023-06-15T19:53:31.928Z,5.80
2023-06-15T19:56:11.147Z,5.50
2023-06-15T19:58:40.166Z,5.20
2023-06-15T20:01:08.837Z,4.80
2023-06-15T20:03:37.881Z,5.20
2023-06-15T20:06:10.160Z,9.10
2023-06-15T20:08:39.498Z,8.00
2023-06-15T20:11:10.555Z,6.00
2023-06-15T20:13:39.198Z,6.00
2023-06-15T20:16:15.245Z,6.10
2023-06-15T20:18:51.230Z,5.70
2023-06-15T20:21:22.051Z,6.30
2023-06-15T20:23:50.874Z,6.90
2023-06-15T20:26:19.519Z,7.80
2023-06-15T20:31:36.012Z,8.70
2023-06-15T20:34:04.628Z,6.70
2023-06-15T20:36:34.493Z,6.20
2023-06-15T20:39:04.802Z,5.70
2023-06-15T20:41:33.259Z,5.40
2023-06-15T20:44:01.676Z,6.70
2023-06-15T20:46:31.758Z,5.40
2023-06-15T20:49:01.555Z,5.20
2023-06-15T20:51:30.128Z,6.80
2023-06-15T20:53:59.522Z,6.80
2023-06-15T20:56:27.930Z,8.30
2023-06-15T20:58:56.300Z,7.00
2023-06-15T21:01:24.888Z,7.40
2023-06-15T21:03:53.334Z,8.00
2023-06-15T21:06:21.857Z,7.60
2023-06-15T21:08:51.584Z,6.80
2023-06-15T21:11:20.219Z,7.40
2023-06-15T21:13:50.576Z,6.30
2023-06-15T21:16:19.325Z,7.60
2023-06-15T21:18:47.846Z,7.80
2023-06-15T21:21:16.315Z,7.00
2023-06-15T21:23:45.595Z,8.10
2023-06-15T21:26:14.501Z,6.80
2023-06-15T21:28:43.128Z,7.90
2023-06-15T21:31:11.660Z,9.10
2023-06-15T21:33:40.054Z,8.20
2023-06-15T21:36:08.682Z,7.20
2023-06-15T21:38:37.178Z,7.20
2023-06-15T21:41:06.129Z,7.20
2023-06-15T21:43:39.404Z,8.30
2023-06-15T21:46:08.037Z,7.40
2023-06-15T21:48:36.590Z,8.00
2023-06-15T21:51:05.349Z,8.60
2023-06-15T21:53:33.843Z,8.20
2023-06-15T21:56:02.259Z,9.50
2023-06-15T21:58:31.189Z,8.50
2023-06-15T22:00:59.723Z,7.20
2023-06-15T22:03:28.503Z,8.60
2023-06-15T22:05:57.054Z,8.70
2023-06-15T22:08:25.646Z,8.00
2023-06-15T22:10:54.234Z,7.10
2023-06-15T22:13:22.713Z,8.40
2023-06-15T22:15:55.745Z,7.40
2023-06-15T22:18:27.222Z,8.00
2023-06-15T22:20:58.847Z,8.60
2023-06-15T22:23:28.705Z,8.60
2023-06-15T22:25:57.450Z,9.20
2023-06-15T22:28:26.274Z,8.70
2023-06-15T22:30:54.770Z,10.00
2023-06-15T22:33:24.915Z,10.10
2023-06-15T22:35:53.716Z,10.50
2023-06-15T22:38:22.673Z,11.00
2023-06-15T22:40:51.699Z,10.50
2023-06-15T22:43:20.328Z,9.20
2023-06-15T22:45:48.867Z,9.60
2023-06-15T22:48:23.943Z,10.50
2023-06-15T22:50:58.586Z,9.90
2023-06-15T22:53:27.107Z,9.50
2023-06-15T22:55:56.185Z,10.30
2023-06-15T22:58:24.860Z,11.20
2023-06-15T23:00:55.125Z,9.00
2023-06-15T23:03:23.832Z,10.30
2023-06-15T23:05:52.305Z,9.90
2023-06-15T23:08:23.750Z,10.10
2023-06-15T23:10:54.108Z,9.80
2023-06-15T23:13:22.775Z,10.00
2023-06-15T23:15:56.939Z,9.50
2023-06-15T23:18:28.178Z,9.30
2023-06-15T23:21:00.244Z,9.10
2023-06-15T23:23:35.133Z,9.80
2023-06-15T23:26:06.748Z,9.20
2023-06-15T23:28:39.114Z,8.70
2023-06-15T23:31:08.476Z,8.50
2023-06-15T23:33:37.098Z,8.10
2023-06-15T23:36:09.812Z,7.70
2023-06-15T23:38:38.283Z,7.10
2023-06-15T23:41:10.612Z,7.90
2023-06-15T23:43:41.771Z,10.10
2023-06-15T23:46:32.982Z,8.60
2023-06-15T23:49:04.341Z,9.70
2023-06-15T23:51:32.887Z,8.50
